createdAt,value
2019-03-17T00:00:47.428Z,71.70
2019-03-17T00:03:37.017Z,72.10
2019-03-17T00:06:13.955Z,73.30
2019-03-17T00:09:03.738Z,73.50
2019-03-17T00:11:40.699Z,73.80
2019-03-17T00:14:31.079Z,73.70
2019-03-17T00:17:07.382Z,74.30
2019-03-17T00:19:56.834Z,74.30
2019-03-17T00:22:40.413Z,74.20
2019-03-17T00:25:31.258Z,74.00
2019-03-17T00:28:13.937Z,74.60
2019-03-17T00:31:09.945Z,74.80
2019-03-17T00:34:05.830Z,73.60
2019-03-17T00:37:01.221Z,73.50
2019-03-17T00:39:57.775Z,73.70
2019-03-17T00:42:54.154Z,74.40
2019-03-17T00:45:49.323Z,76.00
2019-03-17T00:48:39.094Z,77.40
2019-03-17T00:51:15.361Z,76.90
2019-03-17T00:54:06.789Z,76.10
2019-03-17T00:56:43.606Z,75.60
2019-03-17T00:59:39.296Z,75.40
2019-03-17T01:02:34.805Z,75.80
2019-03-17T01:05:23.887Z,75.40
2019-03-17T01:08:00.627Z,75.40
2019-03-17T01:10:51.160Z,75.30
2019-03-17T01:13:33.894Z,75.10
2019-03-17T01:16:29.454Z,75.40
2019-03-17T01:19:25.504Z,76.70
2019-03-17T01:22:21.151Z,76.40
2019-03-17T01:25:18.759Z,76.50
2019-03-17T01:28:15.090Z,77.40
2019-03-17T01:31:11.022Z,77.40
2019-03-17T01:34:06.555Z,76.60
2019-03-17T01:37:01.396Z,76.10
2019-03-17T01:39:57.007Z,75.80
2019-03-17T01:42:46.930Z,75.40
2019-03-17T01:45:30.714Z,74.90
2019-03-17T01:48:19.755Z,75.40
2019-03-17T01:51:02.327Z,75.50
2019-03-17T01:53:51.913Z,75.90
2019-03-17T01:56:35.044Z,75.80
2019-03-17T01:59:30.220Z,75.60
2019-03-17T02:02:25.757Z,75.60
2019-03-17T02:05:22.614Z,75.60
2019-03-17T02:08:12.444Z,76.50
2019-03-17T02:10:54.763Z,76.90
2019-03-17T02:13:37.974Z,76.50
2019-03-17T02:16:21.495Z,76.90
2019-03-17T02:19:05.262Z,76.60
2019-03-17T02:21:49.199Z,76.50
2019-03-17T02:24:31.724Z,76.90
2019-03-17T02:27:15.278Z,77.80
2019-03-17T02:29:57.321Z,77.40
2019-03-17T02:32:40.948Z,77.10
2019-03-17T02:35:38.631Z,77.20
2019-03-17T02:38:08.949Z,77.00
2019-03-17T02:40:58.262Z,76.50
2019-03-17T02:43:34.599Z,76.60
2019-03-17T02:46:23.872Z,77.20
2019-03-17T02:49:07.751Z,77.00
2019-03-17T02:51:50.752Z,76.50
2019-03-17T02:54:34.177Z,76.10
2019-03-17T02:57:16.860Z,76.00
2019-03-17T03:00:00.821Z,75.80
2019-03-17T03:02:57.312Z,75.80
2019-03-17T03:05:53.937Z,75.30
2019-03-17T03:08:31.617Z,75.50
2019-03-17T03:11:08.208Z,75.70
2019-03-17T03:13:58.127Z,75.50
2019-03-17T03:16:41.834Z,75.50
2019-03-17T03:19:24.230Z,75.50
2019-03-17T03:22:08.385Z,75.80
2019-03-17T03:24:50.528Z,75.80
2019-03-17T03:27:34.395Z,76.00
2019-03-17T03:30:22.518Z,77.50
2019-03-17T03:33:05.608Z,78.00
2019-03-17T03:35:48.107Z,77.60
2019-03-17T03:38:32.261Z,77.90
2019-03-17T03:41:14.957Z,78.70
2019-03-17T03:43:58.609Z,78.50
2019-03-17T03:46:43.442Z,78.70
2019-03-17T03:49:26.471Z,79.00
2019-03-17T03:52:09.614Z,78.50
2019-03-17T03:54:53.375Z,78.00
2019-03-17T03:57:36.145Z,78.80
2019-03-17T04:00:21.784Z,79.80
2019-03-17T04:03:12.332Z,79.50
2019-03-17T04:05:49.069Z,80.70
2019-03-17T04:08:38.787Z,82.40
2019-03-17T04:11:15.074Z,83.70
2019-03-17T04:14:04.540Z,83.50
2019-03-17T04:16:48.230Z,83.60
2019-03-17T04:19:31.958Z,84.00
2019-03-17T04:22:15.430Z,83.90
2019-03-17T04:25:04.410Z,82.90
2019-03-17T04:27:48.334Z,81.90
2019-03-17T04:30:31.356Z,81.10
2019-03-17T04:33:14.395Z,81.00
2019-03-17T04:35:56.833Z,80.70
2019-03-17T04:38:46.877Z,80.30
2019-03-17T04:41:30.089Z,80.10
2019-03-17T04:44:21.061Z,80.10
2019-03-17T04:46:57.667Z,79.70
2019-03-17T04:49:47.990Z,79.60
2019-03-17T04:52:31.230Z,79.80
2019-03-17T04:55:20.465Z,79.70
2019-03-17T04:57:56.633Z,79.40
2019-03-17T05:00:46.075Z,79.60
2019-03-17T05:03:28.648Z,80.20
2019-03-17T05:06:17.941Z,80.00
2019-03-17T05:08:54.557Z,79.80
2019-03-17T05:11:45.465Z,80.10
2019-03-17T05:14:21.415Z,80.00
2019-03-17T05:17:11.658Z,80.20
2019-03-17T05:19:54.422Z,80.10
2019-03-17T05:22:44.090Z,80.20
2019-03-17T05:25:20.302Z,79.90
2019-03-17T05:28:10.602Z,79.80
2019-03-17T05:30:53.471Z,79.90
2019-03-17T05:33:49.346Z,79.80
2019-03-17T05:36:44.649Z,80.30
2019-03-17T05:39:40.097Z,80.00
2019-03-17T05:42:35.224Z,80.10
2019-03-17T05:45:25.568Z,80.10
2019-03-17T05:48:08.487Z,79.80
2019-03-17T05:50:57.921Z,79.90
2019-03-17T05:53:34.790Z,80.50
2019-03-17T05:56:24.843Z,79.90
2019-03-17T05:59:00.820Z,79.90
2019-03-17T06:01:51.364Z,80.10
2019-03-17T06:04:27.915Z,81.40
2019-03-17T06:07:19.025Z,81.50
2019-03-17T06:10:01.675Z,81.10
2019-03-17T06:12:52.624Z,80.60
2019-03-17T06:15:42.612Z,80.50
2019-03-17T06:18:19.485Z,80.10
2019-03-17T06:21:09.334Z,79.70
2019-03-17T06:23:52.815Z,79.90
2019-03-17T06:26:35.499Z,80.70
2019-03-17T06:29:18.836Z,79.80
2019-03-17T06:32:08.079Z,79.10
2019-03-17T06:35:04.146Z,79.50
2019-03-17T06:37:53.653Z,78.90
2019-03-17T06:40:29.959Z,78.30
2019-03-17T06:43:20.566Z,78.30
2019-03-17T06:46:03.335Z,78.40
2019-03-17T06:48:46.827Z,77.20
2019-03-17T06:51:29.248Z,76.40
2019-03-17T06:54:13.090Z,76.10
2019-03-17T06:57:02.314Z,76.40
2019-03-17T06:59:38.880Z,76.50
2019-03-17T07:02:28.025Z,76.90
2019-03-17T07:05:23.500Z,76.80
2019-03-17T07:08:19.567Z,76.50
2019-03-17T07:11:10.952Z,74.90
2019-03-17T07:13:46.558Z,75.40
2019-03-17T07:16:38.055Z,74.90
2019-03-17T07:19:20.807Z,75.00
2019-03-17T07:22:10.076Z,75.30
2019-03-17T07:24:46.107Z,74.60
2019-03-17T07:27:35.684Z,73.70
2019-03-17T07:30:27.111Z,73.10
2019-03-17T07:33:21.959Z,72.20
2019-03-17T07:36:11.204Z,72.60
2019-03-17T07:38:47.964Z,72.70
2019-03-17T07:41:37.878Z,70.90
2019-03-17T07:44:21.178Z,69.60
2019-03-17T07:47:17.256Z,67.60
2019-03-17T07:50:06.479Z,65.90
2019-03-17T07:52:43.472Z,64.70
2019-03-17T07:55:35.544Z,65.20
2019-03-17T07:58:18.311Z,65.50
2019-03-17T08:01:14.221Z,64.20
2019-03-17T08:04:04.769Z,65.90
2019-03-17T08:07:00.200Z,66.60
2019-03-17T08:09:56.371Z,67.20
2019-03-17T08:12:52.860Z,66.40
2019-03-17T08:15:48.298Z,64.70
2019-03-17T08:18:44.201Z,63.90
2019-03-17T08:21:43.193Z,63.20
2019-03-17T08:24:31.386Z,62.40
2019-03-17T08:27:14.531Z,62.50
2019-03-17T08:29:56.737Z,62.00
2019-03-17T08:32:41.341Z,61.40
2019-03-17T08:35:25.472Z,61.40
2019-03-17T08:38:21.806Z,62.10
2019-03-17T08:40:53.364Z,61.50
2019-03-17T08:43:53.709Z,59.90
2019-03-17T08:46:27.829Z,60.00
2019-03-17T08:49:12.808Z,59.20
2019-03-17T08:51:56.557Z,58.10
2019-03-17T08:54:38.893Z,59.00
2019-03-17T08:57:22.356Z,59.70
2019-03-17T09:00:06.038Z,59.30
2019-03-17T09:02:49.980Z,58.20
2019-03-17T09:05:32.791Z,57.60
2019-03-17T09:08:15.901Z,57.80
2019-03-17T09:10:58.097Z,58.20
2019-03-17T09:13:42.133Z,58.10
2019-03-17T09:16:31.118Z,58.70
2019-03-17T09:19:14.205Z,58.00
2019-03-17T09:21:57.129Z,57.80
2019-03-17T09:24:40.531Z,57.40
2019-03-17T09:27:23.145Z,56.40
2019-03-17T09:30:05.948Z,57.80
2019-03-17T09:32:48.380Z,57.30
2019-03-17T09:35:32.669Z,57.40
2019-03-17T09:38:15.963Z,57.60
2019-03-17T09:41:00.085Z,57.20
2019-03-17T09:43:49.806Z,57.00
2019-03-17T09:46:33.245Z,57.50
2019-03-17T09:49:15.533Z,58.70
2019-03-17T09:51:59.262Z,61.10
2019-03-17T09:54:41.522Z,61.30
2019-03-17T09:57:24.849Z,61.60
2019-03-17T10:00:13.754Z,61.00
2019-03-17T10:02:56.866Z,60.90
2019-03-17T10:05:40.934Z,60.50
2019-03-17T10:08:24.668Z,60.10
2019-03-17T10:11:07.206Z,60.00
2019-03-17T10:13:57.753Z,59.80
2019-03-17T10:16:33.791Z,59.90
2019-03-17T10:19:23.779Z,60.50
2019-03-17T10:22:01.410Z,61.10
2019-03-17T10:24:51.681Z,61.20
2019-03-17T10:27:34.986Z,61.60
2019-03-17T10:30:31.813Z,62.90
2019-03-17T10:33:21.198Z,62.60
2019-03-17T10:35:57.606Z,61.60
2019-03-17T10:38:48.236Z,61.40
2019-03-17T10:41:31.711Z,62.80
2019-03-17T10:44:28.078Z,62.20
2019-03-17T10:47:24.275Z,61.90
2019-03-17T10:50:22.556Z,60.90
2019-03-17T10:52:59.186Z,60.40
2019-03-17T10:55:48.581Z,60.40
2019-03-17T10:58:30.897Z,59.80
2019-03-17T11:01:14.227Z,58.70
2019-03-17T11:04:04.559Z,58.30
2019-03-17T11:06:59.939Z,58.20
2019-03-17T11:09:55.939Z,58.80
2019-03-17T11:12:45.257Z,58.40
2019-03-17T11:15:26.089Z,57.90
2019-03-17T11:18:16.119Z,57.80
2019-03-17T11:20:53.022Z,58.20
2019-03-17T11:23:43.091Z,58.30
2019-03-17T11:26:19.859Z,58.60
2019-03-17T11:29:09.925Z,59.00
2019-03-17T11:31:46.961Z,59.30
2019-03-17T11:34:36.304Z,59.00
2019-03-17T11:37:13.027Z,59.40
2019-03-17T11:40:03.481Z,58.90
2019-03-17T11:42:40.476Z,59.10
2019-03-17T11:45:29.727Z,58.70
2019-03-17T11:48:12.895Z,58.00
2019-03-17T11:51:08.366Z,57.60
2019-03-17T11:53:57.584Z,57.30
2019-03-17T11:56:33.918Z,57.40
2019-03-17T11:59:24.356Z,57.00
2019-03-17T12:02:01.285Z,57.20
2019-03-17T12:04:51.966Z,57.00
2019-03-17T12:07:35.517Z,55.90
2019-03-17T12:10:35.628Z,56.10
2019-03-17T12:13:25.430Z,56.40
2019-03-17T12:16:02.468Z,56.70
2019-03-17T12:18:52.693Z,55.70
2019-03-17T12:21:36.460Z,54.80
2019-03-17T12:24:20.402Z,54.50
2019-03-17T12:27:03.586Z,55.70
2019-03-17T12:29:47.541Z,55.30
2019-03-17T12:32:38.598Z,56.60
2019-03-17T12:35:15.727Z,57.60
2019-03-17T12:38:05.041Z,57.50
2019-03-17T12:40:48.186Z,57.40
2019-03-17T12:43:31.097Z,56.60
2019-03-17T12:46:15.477Z,56.50
2019-03-17T12:48:57.850Z,56.40
2019-03-17T12:51:41.134Z,56.20
2019-03-17T12:54:24.360Z,55.50
2019-03-17T12:57:07.774Z,55.60
2019-03-17T12:59:50.428Z,55.60
2019-03-17T13:02:34.505Z,55.60
2019-03-17T13:05:25.134Z,54.70
2019-03-17T13:08:08.419Z,55.60
2019-03-17T13:11:04.174Z,55.10
2019-03-17T13:13:54.457Z,54.40
2019-03-17T13:16:38.070Z,54.80
2019-03-17T13:19:33.625Z,54.90
2019-03-17T13:22:16.118Z,54.60
2019-03-17T13:25:05.165Z,55.20
2019-03-17T13:27:48.372Z,55.30
2019-03-17T13:30:37.645Z,55.10
2019-03-17T13:33:14.131Z,54.80
2019-03-17T13:36:05.248Z,54.70
2019-03-17T13:38:49.883Z,55.30
2019-03-17T13:41:39.343Z,55.40
2019-03-17T13:44:16.175Z,55.40
2019-03-17T13:47:06.012Z,55.30
2019-03-17T13:49:42.649Z,55.20
2019-03-17T13:52:33.221Z,55.60
2019-03-17T13:55:16.349Z,55.60
2019-03-17T13:58:05.199Z,55.20
2019-03-17T14:00:47.110Z,54.70
2019-03-17T14:03:29.651Z,55.00
2019-03-17T14:06:15.595Z,55.00
2019-03-17T14:08:58.672Z,55.20
2019-03-17T14:11:42.343Z,55.90
2019-03-17T14:14:31.285Z,55.00
2019-03-17T14:17:14.615Z,54.90
2019-03-17T14:20:03.725Z,54.90
2019-03-17T14:22:40.449Z,54.70
2019-03-17T14:25:45.154Z,54.80
2019-03-17T14:28:22.143Z,55.00
2019-03-17T14:31:12.455Z,55.50
2019-03-17T14:33:49.459Z,56.10
2019-03-17T14:36:39.478Z,55.40
2019-03-17T14:39:15.828Z,54.80
2019-03-17T14:42:05.359Z,54.80
2019-03-17T14:44:43.087Z,54.60
2019-03-17T14:47:33.335Z,54.40
2019-03-17T14:50:34.182Z,54.60
2019-03-17T14:53:29.821Z,54.40
2019-03-17T14:56:20.414Z,53.90
2019-03-17T14:59:02.904Z,54.00
2019-03-17T15:01:46.715Z,54.10
2019-03-17T15:04:29.175Z,53.70
2019-03-17T15:07:12.581Z,54.00
2019-03-17T15:09:55.031Z,54.30
2019-03-17T15:12:38.975Z,54.70
2019-03-17T15:15:23.580Z,54.50
2019-03-17T15:18:07.571Z,54.40
2019-03-17T15:20:50.048Z,55.20
2019-03-17T15:23:33.798Z,54.80
2019-03-17T15:26:22.986Z,54.30
2019-03-17T15:28:59.546Z,54.50
2019-03-17T15:31:49.690Z,54.50
2019-03-17T15:34:33.146Z,55.10
2019-03-17T15:37:22.316Z,54.90
2019-03-17T15:40:14.506Z,54.90
2019-03-17T15:42:58.145Z,55.30
2019-03-17T15:45:48.329Z,56.70
2019-03-17T15:48:25.299Z,57.10
2019-03-17T15:51:20.756Z,57.20
2019-03-17T15:53:55.185Z,57.20
2019-03-17T15:56:45.373Z,57.50
2019-03-17T15:59:22.373Z,57.80
2019-03-17T16:02:11.941Z,58.30
2019-03-17T16:04:48.767Z,58.60
2019-03-17T16:07:42.451Z,58.50
2019-03-17T16:10:33.397Z,58.50
2019-03-17T16:13:28.454Z,58.80
2019-03-17T16:16:23.311Z,59.00
2019-03-17T16:19:19.156Z,59.20
2019-03-17T16:22:15.585Z,59.30
2019-03-17T16:25:11.797Z,59.80
2019-03-17T16:28:00.586Z,59.90
2019-03-17T16:30:42.851Z,60.00
2019-03-17T16:33:26.654Z,60.30
2019-03-17T16:36:09.351Z,60.40
2019-03-17T16:38:52.669Z,60.50
2019-03-17T16:41:43.444Z,60.00
2019-03-17T16:44:20.228Z,59.90
2019-03-17T16:47:10.155Z,59.90
2019-03-17T16:49:53.596Z,60.50
2019-03-17T16:52:36.520Z,60.20
2019-03-17T16:55:20.410Z,60.20
2019-03-17T16:58:03.889Z,60.20
2019-03-17T17:00:47.088Z,60.50
2019-03-17T17:03:37.476Z,61.00
2019-03-17T17:06:14.556Z,61.00
2019-03-17T17:09:04.091Z,60.80
2019-03-17T17:11:41.264Z,60.10
2019-03-17T17:14:30.833Z,60.00
2019-03-17T17:17:35.014Z,59.90
2019-03-17T17:20:36.712Z,60.10
2019-03-17T17:23:26.005Z,59.30
2019-03-17T17:26:02.579Z,59.00
2019-03-17T17:28:51.706Z,59.40
2019-03-17T17:31:28.605Z,59.40
2019-03-17T17:34:19.135Z,59.60
2019-03-17T17:36:56.038Z,59.50
2019-03-17T17:39:46.418Z,59.60
2019-03-17T17:42:22.627Z,59.30
2019-03-17T17:45:20.162Z,58.80
2019-03-17T17:48:04.016Z,58.70
2019-03-17T17:50:47.544Z,58.70
2019-03-17T17:53:33.793Z,59.20
2019-03-17T17:56:17.557Z,61.30
2019-03-17T17:59:07.072Z,61.90
2019-03-17T18:01:43.136Z,62.50
2019-03-17T18:04:32.791Z,62.40
2019-03-17T18:07:09.240Z,62.40
2019-03-17T18:09:58.543Z,62.30
2019-03-17T18:12:42.227Z,63.50
2019-03-17T18:15:40.585Z,62.50
2019-03-17T18:18:35.613Z,62.70
2019-03-17T18:21:24.625Z,63.50
2019-03-17T18:24:07.895Z,63.10
2019-03-17T18:26:56.899Z,62.90
2019-03-17T18:29:40.048Z,62.70
2019-03-17T18:32:38.152Z,61.90
2019-03-17T18:35:27.246Z,62.10
2019-03-17T18:38:06.660Z,62.90
2019-03-17T18:40:57.506Z,62.90
2019-03-17T18:43:40.941Z,63.40
2019-03-17T18:46:31.407Z,63.70
2019-03-17T18:49:15.103Z,63.80
2019-03-17T18:52:05.167Z,63.60
2019-03-17T18:54:48.727Z,63.20
2019-03-17T18:57:44.080Z,63.10
2019-03-17T19:00:40.818Z,63.20
2019-03-17T19:03:39.898Z,63.10
2019-03-17T19:06:35.886Z,63.10
2019-03-17T19:09:31.531Z,63.30
2019-03-17T19:12:13.707Z,63.90
2019-03-17T19:15:03.623Z,64.10
2019-03-17T19:17:39.892Z,64.20
2019-03-17T19:20:30.532Z,64.90
2019-03-17T19:23:14.218Z,65.20
2019-03-17T19:26:03.356Z,65.20
2019-03-17T19:28:40.212Z,65.40
2019-03-17T19:31:29.276Z,65.40
2019-03-17T19:34:12.958Z,65.20
2019-03-17T19:36:55.259Z,65.30
2019-03-17T19:39:38.998Z,66.90
2019-03-17T19:42:21.697Z,68.20
2019-03-17T19:45:05.298Z,70.90
2019-03-17T19:47:54.682Z,72.10
2019-03-17T19:50:53.748Z,72.60
2019-03-17T19:53:43.914Z,72.70
2019-03-17T19:56:27.224Z,73.10
2019-03-17T19:59:22.403Z,73.40
2019-03-17T20:02:11.414Z,73.60
2019-03-17T20:04:49.829Z,74.40
2019-03-17T20:07:39.936Z,74.30
2019-03-17T20:10:40.346Z,75.30
2019-03-17T20:13:36.846Z,76.00
2019-03-17T20:16:31.692Z,76.50
2019-03-17T20:19:20.794Z,77.10
2019-03-17T20:22:04.324Z,77.50
2019-03-17T20:24:48.397Z,78.20
2019-03-17T20:27:30.672Z,78.20
2019-03-17T20:30:20.366Z,78.30
2019-03-17T20:32:56.537Z,78.30
2019-03-17T20:35:47.574Z,78.20
2019-03-17T20:38:24.245Z,78.10
2019-03-17T20:41:15.506Z,77.50
2019-03-17T20:43:58.696Z,76.90
2019-03-17T20:46:54.657Z,77.80
2019-03-17T20:49:44.544Z,77.70
2019-03-17T20:52:21.527Z,78.10
2019-03-17T20:55:12.179Z,77.60
2019-03-17T20:57:55.287Z,77.20
2019-03-17T21:00:50.324Z,77.00
2019-03-17T21:03:45.489Z,76.70
2019-03-17T21:06:42.675Z,76.30
2019-03-17T21:09:38.647Z,76.30
2019-03-17T21:12:22.125Z,76.40
2019-03-17T21:15:12.611Z,75.90
2019-03-17T21:18:01.566Z,75.50
2019-03-17T21:20:51.108Z,75.00
2019-03-17T21:23:27.980Z,74.90
2019-03-17T21:26:18.065Z,74.40
2019-03-17T21:28:55.858Z,74.50
2019-03-17T21:31:46.265Z,74.80
2019-03-17T21:34:22.347Z,74.90
2019-03-17T21:37:12.707Z,75.00
2019-03-17T21:39:49.657Z,74.70
2019-03-17T21:42:39.826Z,74.40
2019-03-17T21:45:20.751Z,74.50
2019-03-17T21:48:11.165Z,73.90
2019-03-17T21:50:54.989Z,73.80
2019-03-17T21:53:50.416Z,73.90
2019-03-17T21:56:45.406Z,74.20
2019-03-17T21:59:34.781Z,74.00
2019-03-17T22:02:13.153Z,73.90
2019-03-17T22:05:03.024Z,73.20
2019-03-17T22:07:48.973Z,73.00
2019-03-17T22:10:31.343Z,72.30
2019-03-17T22:13:15.174Z,72.20
2019-03-17T22:16:11.114Z,73.10
2019-03-17T22:19:07.091Z,73.20
2019-03-17T22:21:57.799Z,73.50
2019-03-17T22:24:34.899Z,73.20
2019-03-17T22:27:24.767Z,73.00
2019-03-17T22:30:01.090Z,74.00
2019-03-17T22:32:52.051Z,73.60
2019-03-17T22:35:29.442Z,73.40
2019-03-17T22:38:19.282Z,73.50
2019-03-17T22:41:08.498Z,73.00
2019-03-17T22:43:45.063Z,73.00
2019-03-17T22:46:33.988Z,72.60
2019-03-17T22:49:10.175Z,72.10
2019-03-17T22:52:00.468Z,71.80
2019-03-17T22:54:43.624Z,71.30
2019-03-17T22:57:33.446Z,71.20
2019-03-17T23:00:37.792Z,71.40
2019-03-17T23:03:28.577Z,71.70
2019-03-17T23:06:05.326Z,72.00
2019-03-17T23:08:55.298Z,72.50
2019-03-17T23:11:31.456Z,72.30
2019-03-17T23:14:22.061Z,72.60
2019-03-17T23:17:05.643Z,72.60
2019-03-17T23:20:01.631Z,72.50
2019-03-17T23:22:57.342Z,72.40
2019-03-17T23:25:47.164Z,72.60
2019-03-17T23:28:24.164Z,72.40
2019-03-17T23:31:15.225Z,72.30
2019-03-17T23:33:51.797Z,72.30
2019-03-17T23:36:41.579Z,72.70
2019-03-17T23:39:18.631Z,72.00
2019-03-17T23:42:08.737Z,71.70
2019-03-17T23:44:51.036Z,71.50
2019-03-17T23:47:34.322Z,71.70
2019-03-17T23:50:25.855Z,72.00
2019-03-17T23:53:10.113Z,72.40
2019-03-17T23:56:01.109Z,72.10
2019-03-17T23:58:43.998Z,72.20
